sensor_id;sensor_type;location;lat;lon;timestamp;temperature;humidity
63202;DHT22;49296;48.188;11.566;2022-09-01T00:00:35;17.70;75.54
63202;DHT22;49296;48.188;11.566;2022-09-01T00:03:02;17.62;75.44
63202;DHT22;49296;48.188;11.566;2022-09-01T00:05:29;17.51;75.88
63202;DHT22;49296;48.188;11.566;2022-09-01T00:07:58;17.35;76.05
63202;DHT22;49296;48.188;11.566;2022-09-01T00:10:25;17.25;76.13
63202;DHT22;49296;48.188;11.566;2022-09-01T00:12:51;17.26;76.51
63202;DHT22;49296;48.188;11.566;2022-09-01T00:15:18;17.36;76.30
63202;DHT22;49296;48.188;11.566;2022-09-01T00:17:44;17.42;76.47
63202;DHT22;49296;48.188;11.566;2022-09-01T00:20:11;17.46;76.43
63202;DHT22;49296;48.188;11.566;2022-09-01T00:22:37;17.39;76.72
63202;DHT22;49296;48.188;11.566;2022-09-01T00:25:05;17.46;76.62
63202;DHT22;49296;48.188;11.566;2022-09-01T00:27:32;17.40;76.55
63202;DHT22;49296;48.188;11.566;2022-09-01T00:29:59;17.38;76.31
63202;DHT22;49296;48.188;11.566;2022-09-01T00:32:26;17.32;76.50
63202;DHT22;49296;48.188;11.566;2022-09-01T00:34:52;17.28;76.68
63202;DHT22;49296;48.188;11.566;2022-09-01T00:37:19;17.30;77.04
63202;DHT22;49296;48.188;11.566;2022-09-01T00:39:45;17.29;76.68
63202;DHT22;49296;48.188;11.566;2022-09-01T00:42:13;17.36;76.80
63202;DHT22;49296;48.188;11.566;2022-09-01T00:44:39;17.32;76.82
63202;DHT22;49296;48.188;11.566;2022-09-01T00:47:06;17.30;76.56
63202;DHT22;49296;48.188;11.566;2022-09-01T00:49:34;17.38;76.46
63202;DHT22;49296;48.188;11.566;2022-09-01T00:52:02;17.32;76.59
63202;DHT22;49296;48.188;11.566;2022-09-01T00:54:29;17.30;76.29
63202;DHT22;49296;48.188;11.566;2022-09-01T00:56:59;17.25;76.02
63202;DHT22;49296;48.188;11.566;2022-09-01T00:59:27;17.29;76.13
63202;DHT22;49296;48.188;11.566;2022-09-01T01:01:54;17.36;76.11
63202;DHT22;49296;48.188;11.566;2022-09-01T01:04:20;17.36;76.06
63202;DHT22;49296;48.188;11.566;2022-09-01T01:06:48;17.38;76.04
63202;DHT22;49296;48.188;11.566;2022-09-01T01:09:23;17.43;75.99
63202;DHT22;49296;48.188;11.566;2022-09-01T01:11:50;17.40;75.65
63202;DHT22;49296;48.188;11.566;2022-09-01T01:14:17;17.21;75.67
63202;DHT22;49296;48.188;11.566;2022-09-01T01:16:46;17.29;75.81
63202;DHT22;49296;48.188;11.566;2022-09-01T01:19:17;17.36;76.02
63202;DHT22;49296;48.188;11.566;2022-09-01T01:22:01;17.38;75.57
63202;DHT22;49296;48.188;11.566;2022-09-01T01:24:47;17.40;75.77
63202;DHT22;49296;48.188;11.566;2022-09-01T01:27:13;17.38;75.88
63202;DHT22;49296;48.188;11.566;2022-09-01T01:29:42;17.25;76.32
63202;DHT22;49296;48.188;11.566;2022-09-01T01:32:08;17.35;75.96
63202;DHT22;49296;48.188;11.566;2022-09-01T01:34:36;17.32;76.24
63202;DHT22;49296;48.188;11.566;2022-09-01T01:37:04;17.36;75.94
63202;DHT22;49296;48.188;11.566;2022-09-01T01:39:30;17.32;76.03
63202;DHT22;49296;48.188;11.566;2022-09-01T01:41:58;17.35;76.11
63202;DHT22;49296;48.188;11.566;2022-09-01T01:44:26;17.21;76.15
63202;DHT22;49296;48.188;11.566;2022-09-01T01:46:54;17.16;76.48
63202;DHT22;49296;48.188;11.566;2022-09-01T01:49:23;17.10;76.93
63202;DHT22;49296;48.188;11.566;2022-09-01T01:51:51;17.21;76.72
63202;DHT22;49296;48.188;11.566;2022-09-01T01:54:20;17.21;76.40
63202;DHT22;49296;48.188;11.566;2022-09-01T01:56:47;17.05;76.00
63202;DHT22;49296;48.188;11.566;2022-09-01T01:59:15;16.98;76.27
63202;DHT22;49296;48.188;11.566;2022-09-01T02:01:42;16.95;76.23
63202;DHT22;49296;48.188;11.566;2022-09-01T02:04:14;16.85;76.13
63202;DHT22;49296;48.188;11.566;2022-09-01T02:06:42;16.78;76.17
63202;DHT22;49296;48.188;11.566;2022-09-01T02:09:10;16.77;76.02
63202;DHT22;49296;48.188;11.566;2022-09-01T02:11:37;16.83;75.92
63202;DHT22;49296;48.188;11.566;2022-09-01T02:14:04;16.92;75.77
63202;DHT22;49296;48.188;11.566;2022-09-01T02:16:32;16.89;75.65
63202;DHT22;49296;48.188;11.566;2022-09-01T02:18:59;16.89;75.92
63202;DHT22;49296;48.188;11.566;2022-09-01T02:21:26;16.81;76.17
63202;DHT22;49296;48.188;11.566;2022-09-01T02:23:54;16.88;75.75
63202;DHT22;49296;48.188;11.566;2022-09-01T02:26:25;16.85;75.74
63202;DHT22;49296;48.188;11.566;2022-09-01T02:28:56;16.76;75.86
63202;DHT22;49296;48.188;11.566;2022-09-01T02:31:26;16.77;75.90
63202;DHT22;49296;48.188;11.566;2022-09-01T02:33:54;16.80;75.76
63202;DHT22;49296;48.188;11.566;2022-09-01T02:36:21;16.83;75.62
63202;DHT22;49296;48.188;11.566;2022-09-01T02:38:49;16.84;75.66
63202;DHT22;49296;48.188;11.566;2022-09-01T02:41:17;16.83;75.46
63202;DHT22;49296;48.188;11.566;2022-09-01T02:43:47;16.81;75.36
63202;DHT22;49296;48.188;11.566;2022-09-01T02:46:14;16.71;75.63
63202;DHT22;49296;48.188;11.566;2022-09-01T02:48:41;16.71;75.64
63202;DHT22;49296;48.188;11.566;2022-09-01T02:51:13;16.67;75.82
63202;DHT22;49296;48.188;11.566;2022-09-01T02:53:41;16.57;76.18
63202;DHT22;49296;48.188;11.566;2022-09-01T02:56:08;16.70;75.90
63202;DHT22;49296;48.188;11.566;2022-09-01T02:58:38;16.69;75.77
63202;DHT22;49296;48.188;11.566;2022-09-01T03:01:10;16.63;75.65
63202;DHT22;49296;48.188;11.566;2022-09-01T03:03:37;16.67;75.67
63202;DHT22;49296;48.188;11.566;2022-09-01T03:06:03;16.64;75.71
63202;DHT22;49296;48.188;11.566;2022-09-01T03:08:33;16.70;75.73
63202;DHT22;49296;48.188;11.566;2022-09-01T03:11:00;16.63;75.92
63202;DHT22;49296;48.188;11.566;2022-09-01T03:13:27;16.56;76.17
63202;DHT22;49296;48.188;11.566;2022-09-01T03:15:55;16.60;76.13
63202;DHT22;49296;48.188;11.566;2022-09-01T03:18:21;16.66;76.01
63202;DHT22;49296;48.188;11.566;2022-09-01T03:20:48;16.61;76.24
63202;DHT22;49296;48.188;11.566;2022-09-01T03:23:15;16.56;76.41
63202;DHT22;49296;48.188;11.566;2022-09-01T03:25:44;16.64;76.16
63202;DHT22;49296;48.188;11.566;2022-09-01T03:28:11;16.61;76.17
63202;DHT22;49296;48.188;11.566;2022-09-01T03:30:43;16.55;76.48
63202;DHT22;49296;48.188;11.566;2022-09-01T03:33:10;16.56;76.30
63202;DHT22;49296;48.188;11.566;2022-09-01T03:35:36;16.57;76.08
63202;DHT22;49296;48.188;11.566;2022-09-01T03:38:03;16.46;76.42
63202;DHT22;49296;48.188;11.566;2022-09-01T03:40:30;16.42;76.49
63202;DHT22;49296;48.188;11.566;2022-09-01T03:42:59;16.48;76.33
63202;DHT22;49296;48.188;11.566;2022-09-01T03:45:25;16.49;76.30
63202;DHT22;49296;48.188;11.566;2022-09-01T03:47:53;16.53;76.26
63202;DHT22;49296;48.188;11.566;2022-09-01T03:50:21;16.46;75.99
63202;DHT22;49296;48.188;11.566;2022-09-01T03:52:48;16.55;75.95
63202;DHT22;49296;48.188;11.566;2022-09-01T03:55:16;16.53;75.91
63202;DHT22;49296;48.188;11.566;2022-09-01T03:57:47;16.55;75.76
63202;DHT22;49296;48.188;11.566;2022-09-01T04:00:16;16.55;75.67
63202;DHT22;49296;48.188;11.566;2022-09-01T04:02:47;16.50;75.65
63202;DHT22;49296;48.188;11.566;2022-09-01T04:05:15;16.41;75.76
63202;DHT22;49296;48.188;11.566;2022-09-01T04:07:42;16.36;75.81
63202;DHT22;49296;48.188;11.566;2022-09-01T04:10:11;16.33;75.88
63202;DHT22;49296;48.188;11.566;2022-09-01T04:12:38;16.42;75.76
63202;DHT22;49296;48.188;11.566;2022-09-01T04:15:04;16.41;75.74
63202;DHT22;49296;48.188;11.566;2022-09-01T04:17:33;16.36;75.80
63202;DHT22;49296;48.188;11.566;2022-09-01T04:20:17;16.19;75.72
63202;DHT22;49296;48.188;11.566;2022-09-01T04:22:46;16.29;75.42
63202;DHT22;49296;48.188;11.566;2022-09-01T04:25:14;16.30;75.50
63202;DHT22;49296;48.188;11.566;2022-09-01T04:27:41;16.21;75.78
63202;DHT22;49296;48.188;11.566;2022-09-01T04:30:11;16.28;75.69
63202;DHT22;49296;48.188;11.566;2022-09-01T04:32:39;16.38;75.68
63202;DHT22;49296;48.188;11.566;2022-09-01T04:35:08;16.46;75.52
63202;DHT22;49296;48.188;11.566;2022-09-01T04:37:40;16.48;75.43
63202;DHT22;49296;48.188;11.566;2022-09-01T04:40:07;16.50;75.61
63202;DHT22;49296;48.188;11.566;2022-09-01T04:42:34;16.57;75.63
63202;DHT22;49296;48.188;11.566;2022-09-01T04:45:01;16.46;75.86
63202;DHT22;49296;48.188;11.566;2022-09-01T04:47:28;16.48;75.99
63202;DHT22;49296;48.188;11.566;2022-09-01T04:49:59;16.46;75.99
63202;DHT22;49296;48.188;11.566;2022-09-01T04:52:26;16.42;76.32
63202;DHT22;49296;48.188;11.566;2022-09-01T04:54:52;16.46;76.11
63202;DHT22;49296;48.188;11.566;2022-09-01T04:57:19;16.36;76.41
63202;DHT22;49296;48.188;11.566;2022-09-01T04:59:45;16.38;76.35
63202;DHT22;49296;48.188;11.566;2022-09-01T05:02:12;16.35;76.42
63202;DHT22;49296;48.188;11.566;2022-09-01T05:04:38;16.36;76.44
63202;DHT22;49296;48.188;11.566;2022-09-01T05:07:07;16.30;76.61
63202;DHT22;49296;48.188;11.566;2022-09-01T05:09:34;16.35;76.62
63202;DHT22;49296;48.188;11.566;2022-09-01T05:12:01;16.39;76.71
63202;DHT22;49296;48.188;11.566;2022-09-01T05:14:35;16.48;76.57
63202;DHT22;49296;48.188;11.566;2022-09-01T05:17:01;16.49;76.78
63202;DHT22;49296;48.188;11.566;2022-09-01T05:19:34;16.57;76.59
63202;DHT22;49296;48.188;11.566;2022-09-01T05:22:01;16.56;76.28
63202;DHT22;49296;48.188;11.566;2022-09-01T05:24:30;16.57;76.26
63202;DHT22;49296;48.188;11.566;2022-09-01T05:26:59;16.57;76.27
63202;DHT22;49296;48.188;11.566;2022-09-01T05:29:26;16.52;75.81
63202;DHT22;49296;48.188;11.566;2022-09-01T05:31:54;16.48;76.31
63202;DHT22;49296;48.188;11.566;2022-09-01T05:34:21;16.56;76.10
63202;DHT22;49296;48.188;11.566;2022-09-01T05:36:51;16.53;76.25
63202;DHT22;49296;48.188;11.566;2022-09-01T05:39:18;16.50;76.10
63202;DHT22;49296;48.188;11.566;2022-09-01T05:41:47;16.53;76.22
63202;DHT22;49296;48.188;11.566;2022-09-01T05:44:14;16.53;76.19
63202;DHT22;49296;48.188;11.566;2022-09-01T05:46:42;16.43;75.97
63202;DHT22;49296;48.188;11.566;2022-09-01T05:49:09;16.42;75.70
63202;DHT22;49296;48.188;11.566;2022-09-01T05:51:38;16.36;75.59
63202;DHT22;49296;48.188;11.566;2022-09-01T05:54:05;16.42;75.52
63202;DHT22;49296;48.188;11.566;2022-09-01T05:56:34;16.41;75.71
63202;DHT22;49296;48.188;11.566;2022-09-01T05:59:04;16.50;75.43
63202;DHT22;49296;48.188;11.566;2022-09-01T06:01:31;16.55;75.43
63202;DHT22;49296;48.188;11.566;2022-09-01T06:03:58;16.64;75.00
63202;DHT22;49296;48.188;11.566;2022-09-01T06:06:28;16.84;74.31
63202;DHT22;49296;48.188;11.566;2022-09-01T06:08:56;16.92;74.06
63202;DHT22;49296;48.188;11.566;2022-09-01T06:11:23;17.07;73.72
63202;DHT22;49296;48.188;11.566;2022-09-01T06:13:50;16.98;73.55
63202;DHT22;49296;48.188;11.566;2022-09-01T06:16:22;17.03;73.46
63202;DHT22;49296;48.188;11.566;2022-09-01T06:18:49;17.10;72.97
63202;DHT22;49296;48.188;11.566;2022-09-01T06:21:17;17.18;72.91
63202;DHT22;49296;48.188;11.566;2022-09-01T06:23:44;17.22;73.14
63202;DHT22;49296;48.188;11.566;2022-09-01T06:26:15;17.11;72.91
63202;DHT22;49296;48.188;11.566;2022-09-01T06:28:41;17.15;72.89
63202;DHT22;49296;48.188;11.566;2022-09-01T06:31:08;17.29;72.74
63202;DHT22;49296;48.188;11.566;2022-09-01T06:33:37;17.32;72.73
63202;DHT22;49296;48.188;11.566;2022-09-01T06:36:04;17.33;71.92
63202;DHT22;49296;48.188;11.566;2022-09-01T06:38:33;17.35;71.61
63202;DHT22;49296;48.188;11.566;2022-09-01T06:41:00;17.25;71.53
63202;DHT22;49296;48.188;11.566;2022-09-01T06:43:28;17.11;72.16
63202;DHT22;49296;48.188;11.566;2022-09-01T06:45:55;16.98;72.28
63202;DHT22;49296;48.188;11.566;2022-09-01T06:48:22;16.91;72.55
63202;DHT22;49296;48.188;11.566;2022-09-01T06:50:50;16.81;72.57
63202;DHT22;49296;48.188;11.566;2022-09-01T06:53:17;16.77;72.49
63202;DHT22;49296;48.188;11.566;2022-09-01T06:55:47;16.73;72.34
63202;DHT22;49296;48.188;11.566;2022-09-01T06:58:14;16.46;73.02
63202;DHT22;49296;48.188;11.566;2022-09-01T07:00:41;16.55;73.33
63202;DHT22;49296;48.188;11.566;2022-09-01T07:03:07;16.56;72.89
63202;DHT22;49296;48.188;11.566;2022-09-01T07:05:37;16.64;72.74
63202;DHT22;49296;48.188;11.566;2022-09-01T07:08:05;16.70;72.66
63202;DHT22;49296;48.188;11.566;2022-09-01T07:10:38;16.61;72.23
63202;DHT22;49296;48.188;11.566;2022-09-01T07:13:06;16.69;72.19
63202;DHT22;49296;48.188;11.566;2022-09-01T07:15:36;16.59;72.60
63202;DHT22;49296;48.188;11.566;2022-09-01T07:18:03;16.69;72.20
63202;DHT22;49296;48.188;11.566;2022-09-01T07:20:31;16.64;72.44
63202;DHT22;49296;48.188;11.566;2022-09-01T07:23:03;16.53;72.66
63202;DHT22;49296;48.188;11.566;2022-09-01T07:25:32;16.76;72.46
63202;DHT22;49296;48.188;11.566;2022-09-01T07:28:03;16.85;71.60
63202;DHT22;49296;48.188;11.566;2022-09-01T07:30:30;16.77;71.54
63202;DHT22;49296;48.188;11.566;2022-09-01T07:32:57;16.83;71.28
63202;DHT22;49296;48.188;11.566;2022-09-01T07:35:24;16.78;71.90
63202;DHT22;49296;48.188;11.566;2022-09-01T07:37:51;16.85;71.99
63202;DHT22;49296;48.188;11.566;2022-09-01T07:40:18;16.95;72.20
63202;DHT22;49296;48.188;11.566;2022-09-01T07:42:52;17.10;71.42
63202;DHT22;49296;48.188;11.566;2022-09-01T07:45:19;16.94;71.37
63202;DHT22;49296;48.188;11.566;2022-09-01T07:47:47;17.03;71.11
63202;DHT22;49296;48.188;11.566;2022-09-01T07:50:14;17.00;71.43
63202;DHT22;49296;48.188;11.566;2022-09-01T07:52:42;17.01;70.80
63202;DHT22;49296;48.188;11.566;2022-09-01T07:55:09;17.10;70.61
63202;DHT22;49296;48.188;11.566;2022-09-01T07:57:36;17.22;69.86
63202;DHT22;49296;48.188;11.566;2022-09-01T08:00:04;17.22;70.07
63202;DHT22;49296;48.188;11.566;2022-09-01T08:02:32;17.39;69.53
63202;DHT22;49296;48.188;11.566;2022-09-01T08:04:58;17.56;69.42
63202;DHT22;49296;48.188;11.566;2022-09-01T08:07:25;17.56;69.05
63202;DHT22;49296;48.188;11.566;2022-09-01T08:09:51;17.57;68.89
63202;DHT22;49296;48.188;11.566;2022-09-01T08:12:18;17.47;69.32
63202;DHT22;49296;48.188;11.566;2022-09-01T08:14:44;17.51;69.42
63202;DHT22;49296;48.188;11.566;2022-09-01T08:20:05;17.57;68.93
63202;DHT22;49296;48.188;11.566;2022-09-01T08:22:33;17.63;68.22
63202;DHT22;49296;48.188;11.566;2022-09-01T08:25:01;17.54;68.06
63202;DHT22;49296;48.188;11.566;2022-09-01T08:27:27;17.74;68.13
63202;DHT22;49296;48.188;11.566;2022-09-01T08:29:54;17.74;67.68
63202;DHT22;49296;48.188;11.566;2022-09-01T08:32:21;17.74;67.28
63202;DHT22;49296;48.188;11.566;2022-09-01T08:34:47;17.74;66.66
63202;DHT22;49296;48.188;11.566;2022-09-01T08:37:15;17.81;67.25
63202;DHT22;49296;48.188;11.566;2022-09-01T08:39:41;17.88;67.01
63202;DHT22;49296;48.188;11.566;2022-09-01T08:42:10;17.84;66.94
63202;DHT22;49296;48.188;11.566;2022-09-01T08:44:40;17.78;67.44
63202;DHT22;49296;48.188;11.566;2022-09-01T08:47:10;17.91;67.69
63202;DHT22;49296;48.188;11.566;2022-09-01T08:49:38;17.88;67.04
63202;DHT22;49296;48.188;11.566;2022-09-01T08:52:06;17.81;67.09
63202;DHT22;49296;48.188;11.566;2022-09-01T08:54:39;17.83;67.00
63202;DHT22;49296;48.188;11.566;2022-09-01T08:57:13;17.94;67.89
63202;DHT22;49296;48.188;11.566;2022-09-01T08:59:39;18.05;67.36
63202;DHT22;49296;48.188;11.566;2022-09-01T09:02:12;18.16;66.77
63202;DHT22;49296;48.188;11.566;2022-09-01T09:04:47;18.16;65.82
63202;DHT22;49296;48.188;11.566;2022-09-01T09:07:18;18.26;65.69
63202;DHT22;49296;48.188;11.566;2022-09-01T09:09:51;18.32;64.90
63202;DHT22;49296;48.188;11.566;2022-09-01T09:12:26;18.22;65.14
63202;DHT22;49296;48.188;11.566;2022-09-01T09:14:58;18.36;65.19
63202;DHT22;49296;48.188;11.566;2022-09-01T09:17:28;18.40;65.09
63202;DHT22;49296;48.188;11.566;2022-09-01T09:19:55;18.26;65.30
63202;DHT22;49296;48.188;11.566;2022-09-01T09:22:22;18.37;65.16
63202;DHT22;49296;48.188;11.566;2022-09-01T09:24:50;18.65;65.22
63202;DHT22;49296;48.188;11.566;2022-09-01T09:27:21;18.80;64.29
63202;DHT22;49296;48.188;11.566;2022-09-01T09:29:48;18.95;63.46
63202;DHT22;49296;48.188;11.566;2022-09-01T09:32:16;18.95;63.20
63202;DHT22;49296;48.188;11.566;2022-09-01T09:34:43;18.94;63.20
63202;DHT22;49296;48.188;11.566;2022-09-01T09:37:16;18.88;62.77
63202;DHT22;49296;48.188;11.566;2022-09-01T09:39:44;18.81;62.88
63202;DHT22;49296;48.188;11.566;2022-09-01T09:42:12;18.88;63.14
63202;DHT22;49296;48.188;11.566;2022-09-01T09:44:41;18.89;64.11
63202;DHT22;49296;48.188;11.566;2022-09-01T09:47:09;19.05;64.57
63202;DHT22;49296;48.188;11.566;2022-09-01T09:49:35;19.09;62.27
63202;DHT22;49296;48.188;11.566;2022-09-01T09:52:12;19.04;61.95
63202;DHT22;49296;48.188;11.566;2022-09-01T09:54:40;19.04;61.92
63202;DHT22;49296;48.188;11.566;2022-09-01T09:57:10;19.22;62.02
63202;DHT22;49296;48.188;11.566;2022-09-01T09:59:40;19.26;61.92
63202;DHT22;49296;48.188;11.566;2022-09-01T10:02:21;19.27;62.42
63202;DHT22;49296;48.188;11.566;2022-09-01T10:04:49;19.18;60.92
63202;DHT22;49296;48.188;11.566;2022-09-01T10:07:21;19.05;61.35
63202;DHT22;49296;48.188;11.566;2022-09-01T10:09:48;19.01;60.70
63202;DHT22;49296;48.188;11.566;2022-09-01T10:12:15;19.06;59.74
63202;DHT22;49296;48.188;11.566;2022-09-01T10:14:44;19.02;60.34
63202;DHT22;49296;48.188;11.566;2022-09-01T10:17:14;18.94;60.76
63202;DHT22;49296;48.188;11.566;2022-09-01T10:19:42;18.98;60.64
63202;DHT22;49296;48.188;11.566;2022-09-01T10:22:11;18.97;60.36
63202;DHT22;49296;48.188;11.566;2022-09-01T10:24:37;19.05;60.30
63202;DHT22;49296;48.188;11.566;2022-09-01T10:27:05;19.09;60.40
63202;DHT22;49296;48.188;11.566;2022-09-01T10:29:36;19.12;60.62
63202;DHT22;49296;48.188;11.566;2022-09-01T10:32:06;19.30;59.51
63202;DHT22;49296;48.188;11.566;2022-09-01T10:34:34;19.32;59.74
63202;DHT22;49296;48.188;11.566;2022-09-01T10:37:01;19.40;58.96
63202;DHT22;49296;48.188;11.566;2022-09-01T10:39:28;19.43;58.50
63202;DHT22;49296;48.188;11.566;2022-09-01T10:41:55;19.58;60.08
63202;DHT22;49296;48.188;11.566;2022-09-01T10:44:23;19.64;58.77
63202;DHT22;49296;48.188;11.566;2022-09-01T10:46:50;19.66;58.53
63202;DHT22;49296;48.188;11.566;2022-09-01T10:49:20;19.54;59.97
63202;DHT22;49296;48.188;11.566;2022-09-01T10:51:47;19.51;57.85
63202;DHT22;49296;48.188;11.566;2022-09-01T10:57:06;19.61;58.98
63202;DHT22;49296;48.188;11.566;2022-09-01T10:59:34;19.70;57.79
63202;DHT22;49296;48.188;11.566;2022-09-01T11:02:11;19.74;56.23
63202;DHT22;49296;48.188;11.566;2022-09-01T11:07:32;19.88;56.14
63202;DHT22;49296;48.188;11.566;2022-09-01T11:10:08;19.89;55.46
63202;DHT22;49296;48.188;11.566;2022-09-01T11:12:43;20.04;55.66
63202;DHT22;49296;48.188;11.566;2022-09-01T11:15:32;20.06;55.10
63202;DHT22;49296;48.188;11.566;2022-09-01T11:17:59;20.13;54.83
63202;DHT22;49296;48.188;11.566;2022-09-01T11:20:26;20.12;54.55
63202;DHT22;49296;48.188;11.566;2022-09-01T11:22:59;20.22;54.95
63202;DHT22;49296;48.188;11.566;2022-09-01T11:25:31;20.32;53.95
63202;DHT22;49296;48.188;11.566;2022-09-01T11:27:59;20.29;54.79
63202;DHT22;49296;48.188;11.566;2022-09-01T11:30:36;20.44;56.34
63202;DHT22;49296;48.188;11.566;2022-09-01T11:33:11;20.56;55.55
63202;DHT22;49296;48.188;11.566;2022-09-01T11:35:39;20.71;54.40
63202;DHT22;49296;48.188;11.566;2022-09-01T11:38:08;20.74;53.87
63202;DHT22;49296;48.188;11.566;2022-09-01T11:40:37;20.81;54.15
63202;DHT22;49296;48.188;11.566;2022-09-01T11:43:05;20.81;53.42
63202;DHT22;49296;48.188;11.566;2022-09-01T11:45:32;20.81;53.41
63202;DHT22;49296;48.188;11.566;2022-09-01T11:48:05;20.92;54.16
63202;DHT22;49296;48.188;11.566;2022-09-01T11:50:33;21.00;53.98
63202;DHT22;49296;48.188;11.566;2022-09-01T11:53:01;21.10;54.09
63202;DHT22;49296;48.188;11.566;2022-09-01T11:55:31;21.37;51.99
63202;DHT22;49296;48.188;11.566;2022-09-01T11:57:59;21.47;50.27
63202;DHT22;49296;48.188;11.566;2022-09-01T12:00:26;21.54;51.74
63202;DHT22;49296;48.188;11.566;2022-09-01T12:02:53;21.44;51.82
63202;DHT22;49296;48.188;11.566;2022-09-01T12:05:25;21.70;50.84
63202;DHT22;49296;48.188;11.566;2022-09-01T12:07:52;21.98;50.05
63202;DHT22;49296;48.188;11.566;2022-09-01T12:10:19;21.98;51.80
63202;DHT22;49296;48.188;11.566;2022-09-01T12:12:49;21.81;51.03
63202;DHT22;49296;48.188;11.566;2022-09-01T12:15:17;21.77;52.95
63202;DHT22;49296;48.188;11.566;2022-09-01T12:17:44;21.78;52.55
63202;DHT22;49296;48.188;11.566;2022-09-01T12:20:24;21.91;52.69
63202;DHT22;49296;48.188;11.566;2022-09-01T12:22:51;22.36;52.48
63202;DHT22;49296;48.188;11.566;2022-09-01T12:25:18;22.43;51.17
63202;DHT22;49296;48.188;11.566;2022-09-01T12:27:45;22.44;50.68
63202;DHT22;49296;48.188;11.566;2022-09-01T12:30:13;22.64;49.53
63202;DHT22;49296;48.188;11.566;2022-09-01T12:32:40;22.82;49.94
63202;DHT22;49296;48.188;11.566;2022-09-01T12:37:41;23.33;47.74
63202;DHT22;49296;48.188;11.566;2022-09-01T12:40:20;23.31;47.60
63202;DHT22;49296;48.188;11.566;2022-09-01T12:42:48;23.71;48.58
63202;DHT22;49296;48.188;11.566;2022-09-01T12:45:34;23.68;48.18
63202;DHT22;49296;48.188;11.566;2022-09-01T12:48:01;23.55;46.30
63202;DHT22;49296;48.188;11.566;2022-09-01T12:50:43;23.43;46.45
63202;DHT22;49296;48.188;11.566;2022-09-01T12:53:16;23.26;46.16
63202;DHT22;49296;48.188;11.566;2022-09-01T12:55:51;22.79;47.27
63202;DHT22;49296;48.188;11.566;2022-09-01T12:58:19;23.08;48.18
63202;DHT22;49296;48.188;11.566;2022-09-01T13:00:54;23.24;47.32
63202;DHT22;49296;48.188;11.566;2022-09-01T13:03:22;23.27;47.08
63202;DHT22;49296;48.188;11.566;2022-09-01T13:05:49;23.12;48.03
63202;DHT22;49296;48.188;11.566;2022-09-01T13:08:17;23.05;46.96
63202;DHT22;49296;48.188;11.566;2022-09-01T13:10:45;22.96;48.48
63202;DHT22;49296;48.188;11.566;2022-09-01T13:13:13;22.98;48.21
63202;DHT22;49296;48.188;11.566;2022-09-01T13:15:42;22.74;48.13
63202;DHT22;49296;48.188;11.566;2022-09-01T13:18:10;22.81;48.69
63202;DHT22;49296;48.188;11.566;2022-09-01T13:20:37;22.78;48.30
63202;DHT22;49296;48.188;11.566;2022-09-01T13:23:03;22.82;47.92
63202;DHT22;49296;48.188;11.566;2022-09-01T13:25:30;23.24;46.23
63202;DHT22;49296;48.188;11.566;2022-09-01T13:27:57;23.27;45.68
63202;DHT22;49296;48.188;11.566;2022-09-01T13:30:27;23.27;46.06
63202;DHT22;49296;48.188;11.566;2022-09-01T13:32:54;23.08;46.85
63202;DHT22;49296;48.188;11.566;2022-09-01T13:35:22;23.23;47.98
63202;DHT22;49296;48.188;11.566;2022-09-01T13:37:49;23.96;45.91
63202;DHT22;49296;48.188;11.566;2022-09-01T13:40:16;24.72;45.30
63202;DHT22;49296;48.188;11.566;2022-09-01T13:42:43;24.47;44.67
63202;DHT22;49296;48.188;11.566;2022-09-01T13:45:10;24.69;43.96
63202;DHT22;49296;48.188;11.566;2022-09-01T13:47:37;25.02;43.77
63202;DHT22;49296;48.188;11.566;2022-09-01T13:50:05;25.89;42.38
63202;DHT22;49296;48.188;11.566;2022-09-01T13:52:33;26.30;41.77
63202;DHT22;49296;48.188;11.566;2022-09-01T13:54:59;26.09;42.32
63202;DHT22;49296;48.188;11.566;2022-09-01T13:57:26;25.67;42.36
63202;DHT22;49296;48.188;11.566;2022-09-01T13:59:54;26.67;41.62
63202;DHT22;49296;48.188;11.566;2022-09-01T14:02:22;27.39;40.09
63202;DHT22;49296;48.188;11.566;2022-09-01T14:04:50;27.34;39.67
63202;DHT22;49296;48.188;11.566;2022-09-01T14:07:16;27.22;39.53
63202;DHT22;49296;48.188;11.566;2022-09-01T14:09:45;27.16;39.83
63202;DHT22;49296;48.188;11.566;2022-09-01T14:12:12;27.36;39.04
63202;DHT22;49296;48.188;11.566;2022-09-01T14:14:38;26.99;39.77
63202;DHT22;49296;48.188;11.566;2022-09-01T14:17:05;27.57;38.93
63202;DHT22;49296;48.188;11.566;2022-09-01T14:19:31;27.92;38.36
63202;DHT22;49296;48.188;11.566;2022-09-01T14:21:59;27.84;38.50
63202;DHT22;49296;48.188;11.566;2022-09-01T14:24:30;28.09;38.28
63202;DHT22;49296;48.188;11.566;2022-09-01T14:26:57;27.84;37.63
63202;DHT22;49296;48.188;11.566;2022-09-01T14:29:24;27.99;37.95
63202;DHT22;49296;48.188;11.566;2022-09-01T14:31:51;27.85;36.13
63202;DHT22;49296;48.188;11.566;2022-09-01T14:34:21;27.89;37.15
63202;DHT22;49296;48.188;11.566;2022-09-01T14:36:48;27.78;37.84
63202;DHT22;49296;48.188;11.566;2022-09-01T14:39:14;27.31;37.80
63202;DHT22;49296;48.188;11.566;2022-09-01T14:41:41;27.24;36.97
63202;DHT22;49296;48.188;11.566;2022-09-01T14:44:09;27.17;36.83
63202;DHT22;49296;48.188;11.566;2022-09-01T14:46:35;27.57;36.10
63202;DHT22;49296;48.188;11.566;2022-09-01T14:49:03;27.78;35.47
63202;DHT22;49296;48.188;11.566;2022-09-01T14:51:30;28.05;34.66
63202;DHT22;49296;48.188;11.566;2022-09-01T14:53:57;27.85;35.42
63202;DHT22;49296;48.188;11.566;2022-09-01T14:56:23;27.80;33.43
63202;DHT22;49296;48.188;11.566;2022-09-01T14:58:50;27.47;33.68
63202;DHT22;49296;48.188;11.566;2022-09-01T15:01:24;27.91;33.41
63202;DHT22;49296;48.188;11.566;2022-09-01T15:03:51;28.09;32.99
63202;DHT22;49296;48.188;11.566;2022-09-01T15:06:18;27.69;33.67
63202;DHT22;49296;48.188;11.566;2022-09-01T15:08:45;28.13;33.21
63202;DHT22;49296;48.188;11.566;2022-09-01T15:11:13;28.09;33.46
63202;DHT22;49296;48.188;11.566;2022-09-01T15:13:39;28.28;33.83
63202;DHT22;49296;48.188;11.566;2022-09-01T15:16:11;28.37;34.02
63202;DHT22;49296;48.188;11.566;2022-09-01T15:18:39;28.75;33.65
63202;DHT22;49296;48.188;11.566;2022-09-01T15:21:06;28.76;33.27
63202;DHT22;49296;48.188;11.566;2022-09-01T15:23:33;28.86;33.67
63202;DHT22;49296;48.188;11.566;2022-09-01T15:25:59;28.91;33.59
63202;DHT22;49296;48.188;11.566;2022-09-01T15:28:26;28.94;33.73
63202;DHT22;49296;48.188;11.566;2022-09-01T15:30:52;28.75;33.59
63202;DHT22;49296;48.188;11.566;2022-09-01T15:33:21;28.75;34.24